Time;durP1;ratioP1;P1;durP2;ratioP2;P2;SDS_P1;SDS_P2;PMS_P1;PMS_P2;Temp;Humidity;BMP_temperature;BMP_pressure;BME280_temperature;BME280_humidity;BME280_pressure;Samples;Min_cycle;Max_cycle;Signal;HPM_P1;HPM_P2
2021/08/16 00:01:41;;;;;;;6.40;4.00;;;;;;;19.41;64.25;100059.88;2614179;31;20582;-45
2021/08/16 00:04:08;;;;;;;7.53;4.35;;;;;;;19.37;64.47;100055.66;2614539;31;20082;-44
2021/08/16 00:06:36;;;;;;;6.00;4.22;;;;;;;19.46;63.98;100058.06;2614018;36;20031;-44
2021/08/16 00:09:07;;;;;;;6.18;4.22;;;;;;;19.41;64.08;100041.69;2613623;36;20582;-47
2021/08/16 00:11:35;;;;;;;6.05;4.38;;;;;;;19.25;64.46;100043.78;2614271;36;20054;-47
2021/08/16 00:14:03;;;;;;;6.28;4.15;;;;;;;18.96;65.62;100035.72;2614659;31;20585;-44
2021/08/16 00:16:33;;;;;;;6.82;4.25;;;;;;;18.99;65.36;100039.09;2615055;31;20570;-45
2021/08/16 00:19:01;;;;;;;5.72;4.20;;;;;;;19.20;64.38;100040.41;2614756;36;20031;-47
2021/08/16 00:21:28;;;;;;;4.88;3.63;;;;;;;18.87;65.92;100036.75;2615381;31;20594;-45
2021/08/16 00:23:55;;;;;;;5.90;4.40;;;;;;;18.92;65.63;100029.72;2614759;36;20023;-44
2021/08/16 00:26:22;;;;;;;7.22;3.83;;;;;;;18.89;65.66;100022.00;2615367;31;20034;-47
2021/08/16 00:28:49;;;;;;;10.80;5.00;;;;;;;19.37;64.15;100024.50;2615554;31;20131;-48
2021/08/16 00:31:16;;;;;;;6.07;3.72;;;;;;;19.32;63.83;100021.16;2615453;31;20026;-44
2021/08/16 00:33:44;;;;;;;5.38;4.20;;;;;;;19.07;64.94;100018.19;2615235;31;20044;-48
2021/08/16 00:36:11;;;;;;;6.78;4.43;;;;;;;19.01;65.01;100010.53;2615267;31;20037;-47
2021/08/16 00:38:38;;;;;;;7.38;4.60;;;;;;;18.81;65.87;100005.72;2614801;36;20872;-45
2021/08/16 00:41:05;;;;;;;5.55;3.97;;;;;;;18.82;65.51;99997.91;2615349;31;20041;-44
2021/08/16 00:43:32;;;;;;;5.10;3.83;;;;;;;18.74;66.45;99999.78;2614890;36;20598;-44
2021/08/16 00:46:00;;;;;;;6.45;4.13;;;;;;;18.61;66.45;99997.44;2615066;36;20018;-44
2021/08/16 00:48:27;;;;;;;6.97;4.35;;;;;;;18.60;66.43;99991.38;2614450;36;20061;-46
2021/08/16 00:50:54;;;;;;;5.88;3.72;;;;;;;18.68;66.73;99992.09;2615010;31;20057;-45
2021/08/16 00:53:22;;;;;;;7.32;4.25;;;;;;;18.74;68.02;99991.16;2615914;31;20073;-44
2021/08/16 00:55:49;;;;;;;9.07;5.03;;;;;;;18.14;73.05;99979.22;2615502;31;20030;-46
2021/08/16 00:58:17;;;;;;;6.13;4.20;;;;;;;18.00;74.38;99976.88;2614341;36;20034;-47
2021/08/16 01:00:45;;;;;;;6.90;4.25;;;;;;;17.77;75.13;99971.19;2615556;31;20055;-48
2021/08/16 01:03:13;;;;;;;7.90;5.25;;;;;;;17.46;79.46;99969.00;2615959;31;20038;-47
2021/08/16 01:05:40;;;;;;;5.82;4.40;;;;;;;17.23;82.31;99974.50;2614577;36;20056;-47
2021/08/16 01:08:08;;;;;;;7.43;5.28;;;;;;;17.13;84.14;99965.16;2615158;36;20027;-48
2021/08/16 01:10:35;;;;;;;9.38;6.00;;;;;;;16.99;85.41;99961.88;2614685;36;20037;-48
2021/08/16 01:13:02;;;;;;;9.05;5.78;;;;;;;16.94;86.05;99961.09;2614575;36;20030;-44
2021/08/16 01:15:29;;;;;;;7.68;5.25;;;;;;;16.86;85.07;99953.41;2614900;36;20041;-48
2021/08/16 01:17:56;;;;;;;7.78;5.28;;;;;;;16.94;85.33;99949.00;2616091;31;20030;-44
2021/08/16 01:20:24;;;;;;;9.20;5.80;;;;;;;16.84;86.61;99950.00;2614625;36;20041;-46
2021/08/16 01:22:51;;;;;;;6.30;5.57;;;;;;;16.77;88.67;99945.75;2615246;36;20053;-45
2021/08/16 01:25:18;;;;;;;9.50;5.90;;;;;;;16.60;88.88;99938.19;2615445;31;20026;-47
2021/08/16 01:27:46;;;;;;;10.88;5.15;;;;;;;16.59;86.61;99939.03;2614244;36;20045;-47
2021/08/16 01:30:17;;;;;;;8.55;5.38;;;;;;;16.64;88.49;99938.97;2615082;31;20045;-45
2021/08/16 01:32:44;;;;;;;10.93;5.45;;;;;;;17.01;87.25;99939.47;2578557;36;2004378;-46
2021/08/16 01:35:12;;;;;;;10.48;6.22;;;;;;;16.79;88.00;99939.72;2615250;31;20041;-44
2021/08/16 01:37:39;;;;;;;7.68;5.68;;;;;;;16.55;87.85;99930.47;2614968;36;20459;-44
2021/08/16 01:40:11;;;;;;;7.97;5.55;;;;;;;16.54;88.98;99931.31;2614004;36;20057;-45
2021/08/16 01:42:38;;;;;;;8.38;5.53;;;;;;;16.61;88.99;99931.28;2614585;36;20061;-44
2021/08/16 01:45:07;;;;;;;7.85;5.18;;;;;;;16.49;88.45;99919.34;2615317;31;20478;-46
2021/08/16 01:47:34;;;;;;;8.50;5.15;;;;;;;16.40;89.24;99917.69;2614384;36;20566;-46
2021/08/16 01:50:01;;;;;;;7.88;5.80;;;;;;;16.72;89.88;99916.53;2614862;31;20034;-45
2021/08/16 01:52:28;;;;;;;6.07;4.95;;;;;;;16.90;87.01;99918.88;2615270;36;20086;-49
2021/08/16 01:54:56;;;;;;;9.23;5.45;;;;;;;16.60;87.70;99916.66;2615190;36;20034;-50
2021/08/16 01:57:23;;;;;;;8.10;5.28;;;;;;;16.32;89.28;99906.63;2615188;31;20030;-46
2021/08/16 01:59:50;;;;;;;9.40;5.80;;;;;;;16.30;88.57;99898.00;2615549;31;20065;-46
2021/08/16 02:02:17;;;;;;;6.40;4.97;;;;;;;16.34;88.99;99899.69;2614592;36;20034;-46
2021/08/16 02:04:47;;;;;;;5.55;4.78;;;;;;;16.45;86.75;99891.81;2614584;31;20038;-48
2021/08/16 02:07:15;;;;;;;6.70;4.82;;;;;;;16.29;86.69;99886.81;2615316;36;20031;-49
2021/08/16 02:09:42;;;;;;;7.68;5.00;;;;;;;16.50;85.77;99880.56;2614708;36;20049;-45
2021/08/16 02:12:09;;;;;;;8.77;5.18;;;;;;;16.78;83.44;99881.13;2614944;36;20914;-49
2021/08/16 02:14:37;;;;;;;9.05;4.70;;;;;;;16.99;81.69;99881.69;2615189;36;20042;-47
2021/08/16 02:17:04;;;;;;;8.70;4.95;;;;;;;16.97;81.99;99876.56;2615988;31;20030;-44
2021/08/16 02:19:31;;;;;;;7.75;4.63;;;;;;;17.20;80.83;99878.81;2616038;31;20042;-44
2021/08/16 02:21:58;;;;;;;8.63;4.40;;;;;;;17.51;79.32;99878.34;2616002;31;20069;-46
2021/08/16 02:24:25;;;;;;;7.68;4.65;;;;;;;17.02;83.20;99869.59;2614421;36;20053;-52
2021/08/16 02:26:53;;;;;;;8.30;4.88;;;;;;;17.27;80.43;99872.66;2615423;31;20027;-44
2021/08/16 02:29:20;;;;;;;10.48;4.55;;;;;;;17.38;79.71;99869.06;2615180;31;20031;-49
2021/08/16 02:31:47;;;;;;;8.40;4.65;;;;;;;17.19;79.87;99865.88;2614587;36;20034;-48
2021/08/16 02:34:14;;;;;;;9.25;5.18;;;;;;;17.12;81.71;99866.88;2616309;31;20031;-44
2021/08/16 02:36:41;;;;;;;8.80;5.38;;;;;;;17.04;81.00;99869.56;2615042;31;20084;-44
2021/08/16 02:39:09;;;;;;;7.63;4.70;;;;;;;17.08;80.60;99865.22;2614295;31;20042;-47
2021/08/16 02:41:36;;;;;;;7.53;4.88;;;;;;;16.96;81.55;99869.69;2617292;31;20078;-44
2021/08/16 02:44:04;;;;;;;7.28;5.28;;;;;;;16.93;82.86;99864.53;2615130;31;20030;-47
2021/08/16 02:46:32;;;;;;;10.68;5.20;;;;;;;16.91;85.56;99865.44;2614650;36;20489;-46
2021/08/16 02:49:00;;;;;;;7.28;5.03;;;;;;;16.93;86.44;99866.28;2615114;31;20054;-47
2021/08/16 02:51:27;;;;;;;9.25;6.03;;;;;;;16.78;86.85;99860.44;2614916;31;20034;-44
2021/08/16 02:53:55;;;;;;;11.80;6.03;;;;;;;16.60;89.02;99859.78;2614514;36;20038;-49
2021/08/16 02:56:23;;;;;;;9.25;6.25;;;;;;;16.52;91.79;99857.28;2614538;36;20034;-50
2021/08/16 02:58:50;;;;;;;8.52;5.88;;;;;;;16.30;92.77;99854.09;2615019;31;20057;-47
2021/08/16 03:01:17;;;;;;;8.25;5.38;;;;;;;16.05;93.68;99850.91;2615796;31;20064;-46
2021/08/16 03:03:44;;;;;;;8.60;5.78;;;;;;;16.16;93.61;99853.38;2615218;31;20030;-44
2021/08/16 03:06:12;;;;;;;15.63;6.05;;;;;;;15.99;94.05;99848.38;2615094;31;20034;-44
2021/08/16 03:08:39;;;;;;;12.68;6.03;;;;;;;15.92;94.65;99842.44;2614719;31;20057;-45
2021/08/16 03:11:07;;;;;;;8.95;6.50;;;;;;;16.13;92.83;99843.06;2614506;36;20042;-44
2021/08/16 03:13:34;;;;;;;11.32;6.18;;;;;;;15.91;94.79;99843.31;2614452;36;20034;-46
2021/08/16 03:16:02;;;;;;;8.85;5.60;;;;;;;16.01;94.50;99842.34;2614027;36;20042;-47
2021/08/16 03:18:29;;;;;;;7.50;6.18;;;;;;;16.09;93.78;99838.84;2613250;31;20077;-50
2021/08/16 03:20:57;;;;;;;10.40;6.20;;;;;;;16.00;94.11;99840.63;2615175;31;20103;-44
2021/08/16 03:23:24;;;;;;;9.98;6.10;;;;;;;16.38;92.69;99828.16;2615060;31;20035;-44
2021/08/16 03:25:51;;;;;;;14.55;6.30;;;;;;;16.46;92.31;99834.97;2615309;31;20038;-45
2021/08/16 03:28:18;;;;;;;13.48;6.47;;;;;;;16.18;93.61;99829.25;2613461;36;20039;-44
2021/08/16 03:30:48;;;;;;;9.07;6.68;;;;;;;16.26;92.91;99829.16;2614725;31;20031;-46
2021/08/16 03:33:15;;;;;;;8.43;6.35;;;;;;;16.27;93.95;99830.88;2614654;31;20039;-44
2021/08/16 03:35:42;;;;;;;12.45;6.35;;;;;;;16.18;94.40;99831.00;2615154;31;20030;-48
2021/08/16 03:38:10;;;;;;;7.53;6.10;;;;;;;16.20;93.58;99830.09;2614746;36;20034;-43
2021/08/16 03:40:37;;;;;;;11.57;6.18;;;;;;;16.22;93.78;99820.59;2613725;36;20023;-42
2021/08/16 03:43:04;;;;;;;9.95;6.43;;;;;;;16.28;93.69;99824.84;2614220;31;20903;-47
2021/08/16 03:45:31;;;;;;;11.73;6.18;;;;;;;16.27;93.29;99820.56;2613925;36;20079;-47
2021/08/16 03:47:59;;;;;;;12.23;6.03;;;;;;;16.09;94.86;99820.75;2613830;31;20030;-42
2021/08/16 03:50:26;;;;;;;11.68;6.38;;;;;;;16.04;95.78;99818.22;2615761;31;20034;-43
2021/08/16 03:52:53;;;;;;;10.18;6.93;;;;;;;15.98;96.92;99816.53;2616254;36;20035;-44
2021/08/16 03:55:20;;;;;;;8.35;6.50;;;;;;;16.64;93.34;99822.66;2616446;31;20054;-45
2021/08/16 03:57:47;;;;;;;11.07;6.43;;;;;;;16.41;94.29;99818.66;2616051;31;20563;-43
2021/08/16 04:00:16;;;;;;;11.90;6.00;;;;;;;16.36;94.26;99814.41;2614896;36;20046;-43
2021/08/16 04:02:45;;;;;;;8.93;6.13;;;;;;;16.18;95.83;99803.44;2615088;36;20030;-46
2021/08/16 04:05:13;;;;;;;9.10;6.10;;;;;;;15.99;97.56;99796.72;2616626;31;20089;-42
2021/08/16 04:07:46;;;;;;;9.88;5.78;;;;;;;16.31;94.96;99804.13;2615173;36;20476;-43
2021/08/16 04:10:15;;;;;;;9.70;6.38;;;;;;;16.37;94.61;99798.91;2615055;36;20129;-46
2021/08/16 04:12:43;;;;;;;9.02;5.70;;;;;;;16.85;90.69;99798.28;2615313;31;20034;-44
2021/08/16 04:15:16;;;;;;;7.85;6.10;;;;;;;17.09;88.70;99797.06;2616021;31;20038;-43
2021/08/16 04:17:43;;;;;;;11.00;6.30;;;;;;;16.99;88.67;99794.63;2616353;31;20026;-48
2021/08/16 04:20:12;;;;;;;11.35;5.10;;;;;;;17.06;86.81;99792.81;2615013;31;20030;-43
2021/08/16 04:22:39;;;;;;;10.98;5.10;;;;;;;17.50;83.57;99792.06;2615307;36;20033;-43
2021/08/16 04:25:08;;;;;;;9.18;4.57;;;;;;;17.64;81.79;99791.84;2614997;36;20069;-46
2021/08/16 04:27:39;;;;;;;8.10;5.25;;;;;;;17.79;81.74;99791.63;2614986;36;20566;-45
2021/08/16 04:30:07;;;;;;;6.90;4.55;;;;;;;18.00;79.46;99795.53;2614853;36;20042;-43
2021/08/16 04:32:35;;;;;;;10.60;5.10;;;;;;;18.16;78.53;99782.25;2614918;31;20030;-43
2021/08/16 04:35:03;;;;;;;8.55;5.53;;;;;;;18.66;76.29;99785.53;2615325;31;20038;-46
2021/08/16 04:37:35;;;;;;;9.00;4.53;;;;;;;18.93;73.69;99787.53;2615813;31;20479;-43
2021/08/16 04:40:02;;;;;;;10.80;4.85;;;;;;;18.94;74.08;99794.44;2615503;31;20039;-43
2021/08/16 04:42:30;;;;;;;7.70;4.30;;;;;;;18.94;73.93;99786.66;2615614;31;20057;-44
2021/08/16 04:44:57;;;;;;;7.65;3.97;;;;;;;18.97;72.15;99791.78;2615052;36;20038;-44
2021/08/16 04:47:24;;;;;;;7.97;4.40;;;;;;;18.96;72.32;99797.00;2617153;31;20034;-46
2021/08/16 04:49:54;;;;;;;7.65;4.15;;;;;;;18.98;73.02;99795.22;2615753;31;20030;-43
2021/08/16 04:52:21;;;;;;;7.85;4.30;;;;;;;18.94;73.91;99803.97;2615461;36;20120;-44
2021/08/16 04:54:48;;;;;;;8.40;4.63;;;;;;;18.94;72.35;99799.63;2614601;36;20586;-43
2021/08/16 04:57:35;;;;;;;6.80;4.25;;;;;;;19.08;71.06;99805.34;2614969;31;20057;-44
2021/08/16 05:00:08;;;;;;;7.80;4.25;;;;;;;19.03;73.42;99809.78;2578199;31;2004392;-46
2021/08/16 05:02:36;;;;;;;6.43;4.00;;;;;;;19.13;70.90;99809.56;2614951;36;20442;-52
2021/08/16 05:05:08;;;;;;;8.48;3.50;;;;;;;19.23;70.28;99822.31;2615055;31;20163;-44
2021/08/16 05:07:36;;;;;;;6.18;3.53;;;;;;;19.27;70.22;99812.69;2614385;36;20031;-44
2021/08/16 05:10:07;;;;;;;5.88;3.63;;;;;;;19.33;70.40;99818.59;2615099;36;20041;-44
2021/08/16 05:12:36;;;;;;;6.40;3.80;;;;;;;19.17;70.73;99817.25;2624379;36;20030;-48
2021/08/16 05:15:04;;;;;;;6.10;3.75;;;;;;;19.15;71.33;99829.44;2614961;31;20034;-50
2021/08/16 05:17:32;;;;;;;9.70;4.10;;;;;;;18.94;73.06;99827.31;2613673;36;20037;-44
2021/08/16 05:20:00;;;;;;;7.70;4.05;;;;;;;19.10;73.08;99825.25;2614908;31;20570;-45
2021/08/16 05:22:27;;;;;;;5.50;3.55;;;;;;;18.95;72.98;99832.50;2614546;36;20432;-45
2021/08/16 05:24:54;;;;;;;8.45;4.07;;;;;;;19.07;73.01;99829.59;2615625;31;20037;-48
2021/08/16 05:27:21;;;;;;;7.88;3.95;;;;;;;19.05;73.56;99831.38;2614851;31;20590;-45
2021/08/16 05:29:48;;;;;;;6.78;3.97;;;;;;;19.11;73.05;99829.53;2615015;31;20035;-48
2021/08/16 05:32:17;;;;;;;8.85;4.45;;;;;;;19.20;73.62;99839.69;2614715;36;20030;-46
2021/08/16 05:34:44;;;;;;;8.18;4.15;;;;;;;19.24;73.32;99838.75;2615153;31;20609;-44
2021/08/16 05:37:12;;;;;;;9.32;4.72;;;;;;;19.27;75.49;99842.13;2614582;36;20046;-48
2021/08/16 05:39:39;;;;;;;15.18;4.88;;;;;;;19.31;75.03;99840.28;2614389;36;20037;-48
2021/08/16 05:42:06;;;;;;;5.75;3.97;;;;;;;19.41;72.20;99840.91;2614119;36;20026;-45
2021/08/16 05:44:34;;;;;;;6.93;3.95;;;;;;;19.56;72.68;99844.00;2614010;31;20030;-47
2021/08/16 05:47:02;;;;;;;6.15;3.95;;;;;;;19.59;74.34;99843.91;2614403;36;20034;-45
2021/08/16 05:49:29;;;;;;;7.07;3.67;;;;;;;19.65;72.33;99845.56;2614326;36;20093;-46
2021/08/16 05:51:56;;;;;;;5.72;3.50;;;;;;;19.87;71.02;99843.25;2615166;31;20542;-44
2021/08/16 05:54:24;;;;;;;4.55;3.38;;;;;;;19.86;69.99;99849.34;2615402;36;20038;-49
2021/08/16 05:56:51;;;;;;;7.80;3.72;;;;;;;19.83;70.55;99839.06;2615160;36;20030;-46
2021/08/16 05:59:18;;;;;;;5.50;3.35;;;;;;;20.04;69.17;99838.47;2614472;36;20577;-48
2021/08/16 06:01:45;;;;;;;5.38;3.50;;;;;;;20.33;69.87;99836.81;2614516;36;20030;-45
2021/08/16 06:04:13;;;;;;;6.93;3.28;;;;;;;20.53;68.24;99833.69;2614537;36;20035;-45
2021/08/16 06:06:40;;;;;;;5.53;4.10;;;;;;;20.86;65.85;99826.63;2614227;36;20034;-45
2021/08/16 06:09:08;;;;;;;4.72;3.20;;;;;;;20.98;67.12;99833.19;2614703;31;20038;-45
2021/08/16 06:11:35;;;;;;;7.40;3.30;;;;;;;21.04;65.67;99833.03;2614070;36;20134;-48
2021/08/16 06:14:02;;;;;;;6.20;3.17;;;;;;;21.17;65.82;99836.97;2614581;31;20031;-46
2021/08/16 06:16:29;;;;;;;12.00;3.80;;;;;;;21.13;64.95;99831.91;2615149;31;20061;-47
2021/08/16 06:18:56;;;;;;;10.02;3.80;;;;;;;21.13;65.32;99843.16;2614280;31;20074;-48
2021/08/16 06:21:23;;;;;;;5.40;2.92;;;;;;;21.21;66.22;99835.94;2614615;31;20038;-47
2021/08/16 06:23:51;;;;;;;6.78;3.55;;;;;;;21.45;67.17;99843.91;2614349;31;20582;-48
2021/08/16 06:26:18;;;;;;;10.18;3.15;;;;;;;21.45;64.98;99836.94;2614189;36;20039;-47
2021/08/16 06:28:45;;;;;;;3.63;2.72;;;;;;;21.71;63.99;99845.66;2613939;36;20053;-45
2021/08/16 06:31:12;;;;;;;5.97;3.28;;;;;;;21.85;65.73;99846.88;2614775;31;20031;-45
2021/08/16 06:33:40;;;;;;;4.78;3.55;;;;;;;22.08;63.84;99840.00;2615054;31;20368;-47
2021/08/16 06:36:08;;;;;;;5.90;2.78;;;;;;;21.86;63.59;99847.72;2614221;36;20034;-48
2021/08/16 06:38:35;;;;;;;7.50;3.70;;;;;;;21.80;63.13;99856.59;2614350;31;20034;-47
2021/08/16 06:41:03;;;;;;;5.85;3.67;;;;;;;21.77;63.72;99854.13;2614446;31;20038;-45
2021/08/16 06:43:33;;;;;;;4.47;3.25;;;;;;;21.78;65.01;99847.16;2614175;36;20065;-45
2021/08/16 06:46:00;;;;;;;3.75;2.97;;;;;;;21.88;64.17;99865.94;2614168;31;20178;-46
2021/08/16 06:48:27;;;;;;;6.93;3.22;;;;;;;21.89;63.10;99858.06;2613678;36;20018;-47
2021/08/16 06:50:57;;;;;;;4.18;2.92;;;;;;;22.11;63.72;99873.81;2614185;36;20038;-46
2021/08/16 06:53:24;;;;;;;8.10;3.25;;;;;;;21.92;62.27;99872.75;2614936;31;20624;-45
2021/08/16 06:55:53;;;;;;;4.35;2.70;;;;;;;22.23;63.75;99867.34;2614431;31;20583;-50
2021/08/16 06:58:20;;;;;;;5.13;2.95;;;;;;;22.19;63.39;99863.16;2615048;31;20483;-46
2021/08/16 07:00:47;;;;;;;6.30;3.45;;;;;;;22.04;62.82;99862.72;2614509;31;20554;-46
2021/08/16 07:03:15;;;;;;;3.45;3.15;;;;;;;22.18;62.96;99866.66;2613846;36;20037;-46
2021/08/16 07:05:43;;;;;;;7.47;3.13;;;;;;;22.14;62.42;99868.53;2614011;36;20062;-48
2021/08/16 07:08:14;;;;;;;4.00;2.58;;;;;;;22.19;64.70;99869.22;2614655;31;20027;-46
2021/08/16 07:10:42;;;;;;;8.80;4.00;;;;;;;22.19;62.69;99861.41;2615536;31;20026;-45
2021/08/16 07:13:10;;;;;;;8.23;3.78;;;;;;;22.54;61.79;99857.50;2613744;36;20038;-47
2021/08/16 07:15:38;;;;;;;9.18;3.30;;;;;;;23.18;60.39;99862.06;2614265;31;20027;-46
2021/08/16 07:18:05;;;;;;;7.32;3.25;;;;;;;23.40;58.79;99858.59;2614470;31;20459;-48
2021/08/16 07:20:33;;;;;;;5.65;2.97;;;;;;;23.04;60.07;99859.13;2613990;36;20038;-46
2021/08/16 07:23:00;;;;;;;9.63;3.92;;;;;;;22.72;61.10;99862.94;2613885;36;20035;-45
2021/08/16 07:25:28;;;;;;;5.78;3.33;;;;;;;22.71;61.48;99863.84;2614315;36;20057;-48
2021/08/16 07:27:55;;;;;;;7.95;3.85;;;;;;;22.91;61.23;99865.75;2615157;31;20606;-48
2021/08/16 07:30:22;;;;;;;7.88;3.45;;;;;;;22.51;61.67;99861.97;2614893;36;20442;-47
2021/08/16 07:32:49;;;;;;;6.68;3.47;;;;;;;22.71;62.30;99862.09;2614610;36;20034;-46
2021/08/16 07:35:16;;;;;;;4.22;2.95;;;;;;;22.63;62.78;99867.59;2614299;36;20038;-45
2021/08/16 07:37:43;;;;;;;4.82;3.35;;;;;;;22.73;63.18;99864.63;2614219;36;20037;-47
2021/08/16 07:40:12;;;;;;;6.05;3.58;;;;;;;22.90;62.51;99871.88;2614218;36;20083;-45
2021/08/16 07:42:40;;;;;;;7.00;3.70;;;;;;;23.20;62.81;99870.66;2614831;31;20042;-50
2021/08/16 07:45:09;;;;;;;5.55;3.25;;;;;;;23.13;60.25;99867.47;2615032;36;20416;-47
2021/08/16 07:47:36;;;;;;;6.38;3.30;;;;;;;23.15;61.24;99854.31;2614355;36;20042;-49
2021/08/16 07:50:07;;;;;;;5.75;3.33;;;;;;;22.94;62.44;99876.06;2614647;31;20590;-46
2021/08/16 07:52:35;;;;;;;5.78;3.40;;;;;;;22.60;61.52;99883.38;2614474;36;20034;-47
2021/08/16 07:55:04;;;;;;;6.07;3.63;;;;;;;22.69;63.14;99881.31;2614697;31;20551;-48
2021/08/16 07:57:31;;;;;;;6.03;3.20;;;;;;;22.55;63.56;99889.66;2615844;36;20037;-48
2021/08/16 08:00:00;;;;;;;5.65;3.20;;;;;;;22.78;62.18;99892.25;2614857;31;20145;-48
2021/08/16 08:02:41;;;;;;;5.88;3.30;;;;;;;22.56;63.39;99888.78;2614758;36;20161;-48
2021/08/16 08:05:10;;;;;;;5.80;3.13;;;;;;;22.97;62.82;99889.88;2614536;36;20034;-47
2021/08/16 08:07:37;;;;;;;5.65;3.60;;;;;;;23.16;59.94;99890.00;2614706;36;20038;-47
2021/08/16 08:10:05;;;;;;;4.55;3.45;;;;;;;23.04;60.92;99898.31;2614256;36;20027;-46
2021/08/16 08:12:33;;;;;;;5.63;3.58;;;;;;;23.30;60.41;99897.31;2614717;31;20045;-44
2021/08/16 08:15:01;;;;;;;6.18;3.17;;;;;;;23.67;60.35;99895.84;2614865;36;20486;-47
2021/08/16 08:17:28;;;;;;;7.53;3.28;;;;;;;23.41;60.43;99892.50;2614353;31;20031;-49
2021/08/16 08:19:56;;;;;;;6.47;3.30;;;;;;;23.73;61.59;99911.28;2615074;31;20061;-45
2021/08/16 08:22:24;;;;;;;4.82;3.40;;;;;;;23.62;60.12;99903.84;2615795;31;20034;-49
2021/08/16 08:24:51;;;;;;;6.60;3.40;;;;;;;23.72;60.02;99894.75;2614972;31;20039;-49
2021/08/16 08:27:20;;;;;;;4.97;3.45;;;;;;;23.47;59.81;99899.22;2616315;31;20030;-47
2021/08/16 08:29:47;;;;;;;7.32;3.33;;;;;;;23.40;60.08;99897.78;2614710;36;20037;-48
2021/08/16 08:32:15;;;;;;;7.50;4.40;;;;;;;23.35;59.74;99901.44;2615071;31;20031;-49
2021/08/16 08:34:42;;;;;;;7.68;3.70;;;;;;;23.43;59.41;99893.28;2616013;31;20086;-49
2021/08/16 08:37:15;;;;;;;7.43;4.28;;;;;;;23.40;59.51;99901.25;2615190;31;20030;-50
2021/08/16 08:39:45;;;;;;;6.18;4.00;;;;;;;24.25;59.08;99903.84;2615750;31;20435;-46
2021/08/16 08:42:13;;;;;;;7.03;3.65;;;;;;;24.90;54.01;99907.94;2614949;31;20575;-46
2021/08/16 08:44:42;;;;;;;6.47;4.28;;;;;;;25.69;50.98;99916.44;2614330;36;20038;-48
2021/08/16 08:47:11;;;;;;;7.95;4.55;;;;;;;26.49;49.32;99909.84;2615184;31;20373;-48
2021/08/16 08:49:38;;;;;;;6.32;4.00;;;;;;;25.54;51.67;99904.91;2614617;31;20045;-46
2021/08/16 08:52:06;;;;;;;7.88;4.47;;;;;;;25.79;52.47;99909.84;2614951;36;20434;-48
2021/08/16 08:54:35;;;;;;;8.63;4.25;;;;;;;25.63;52.11;99916.72;2614540;31;20058;-50
2021/08/16 08:57:24;;;;;;;6.43;4.53;;;;;;;25.30;53.54;99904.34;2578907;31;2004624;-46
2021/08/16 08:59:51;;;;;;;7.70;4.60;;;;;;;25.04;51.24;99912.53;2614221;31;20030;-49
2021/08/16 09:02:20;;;;;;;7.72;5.18;;;;;;;24.62;51.00;99919.66;2614596;31;20038;-46
2021/08/16 09:04:52;;;;;;;7.15;4.72;;;;;;;24.78;53.59;99911.13;2614413;36;20033;-47
2021/08/16 09:07:40;;;;;;;7.05;4.85;;;;;;;24.63;51.49;99923.13;2579141;31;2004981;-48
2021/08/16 09:10:12;;;;;;;6.43;5.25;;;;;;;24.63;51.81;99913.50;2614757;31;20057;-47
2021/08/16 09:12:41;;;;;;;8.10;5.35;;;;;;;24.12;52.77;99917.44;2615226;31;20030;-48
2021/08/16 09:15:14;;;;;;;8.25;5.03;;;;;;;24.00;52.80;99907.53;2614338;36;20066;-46
2021/08/16 09:17:41;;;;;;;10.35;4.88;;;;;;;24.45;51.97;99909.13;2614647;36;20447;-47
2021/08/16 09:20:32;;;;;;;5.85;4.65;;;;;;;24.77;51.93;99909.41;2614029;36;20039;-48
2021/08/16 09:23:01;;;;;;;6.07;4.63;;;;;;;25.45;52.27;99915.00;2578041;36;2004561;-48
2021/08/16 09:25:32;;;;;;;6.45;4.40;;;;;;;25.24;48.93;99919.53;2614172;36;20534;-46
2021/08/16 09:28:00;;;;;;;6.18;4.95;;;;;;;25.35;49.99;99911.97;2614683;31;20039;-48
2021/08/16 09:30:34;;;;;;;6.85;4.78;;;;;;;25.29;49.30;99922.75;2614943;31;20030;-46
2021/08/16 09:33:16;;;;;;;5.80;4.85;;;;;;;24.63;50.10;99920.50;2614780;36;20452;-46
2021/08/16 09:35:50;;;;;;;9.48;4.82;;;;;;;25.12;48.94;99920.94;2614132;36;20576;-45
2021/08/16 09:38:18;;;;;;;8.65;4.82;;;;;;;25.69;49.16;99919.06;2614735;31;20035;-46
2021/08/16 09:40:45;;;;;;;5.78;4.63;;;;;;;24.88;48.09;99926.34;2614391;36;20026;-48
2021/08/16 09:43:12;;;;;;;6.85;4.65;;;;;;;24.74;49.72;99925.28;2614631;36;20451;-46
2021/08/16 09:45:39;;;;;;;7.28;4.47;;;;;;;24.78;48.11;99917.22;2614448;31;20034;-46
2021/08/16 09:48:07;;;;;;;7.72;4.47;;;;;;;25.30;46.55;99917.44;2613858;31;20034;-49
2021/08/16 09:50:37;;;;;;;8.45;4.28;;;;;;;26.61;43.64;99923.13;2613960;36;20061;-46
2021/08/16 09:53:11;;;;;;;6.95;3.92;;;;;;;26.89;42.16;99911.16;2615146;31;20030;-45
2021/08/16 09:55:44;;;;;;;9.20;4.10;;;;;;;27.01;40.52;99917.53;2614243;36;20435;-53
2021/08/16 09:58:13;;;;;;;4.72;3.75;;;;;;;27.32;38.32;99909.69;2616352;31;20416;-49
2021/08/16 10:00:42;;;;;;;4.22;3.78;;;;;;;27.71;38.37;99910.13;2614665;36;20034;-49
2021/08/16 10:03:13;;;;;;;5.97;3.70;;;;;;;29.25;34.85;99918.34;2614694;31;20034;-46
2021/08/16 10:05:42;;;;;;;6.90;4.03;;;;;;;30.49;34.02;99925.94;2614989;31;20139;-49
2021/08/16 10:08:19;;;;;;;6.35;3.85;;;;;;;30.56;32.72;99922.78;2615190;31;20052;-47
2021/08/16 10:10:48;;;;;;;4.80;3.53;;;;;;;31.76;31.30;99924.78;2614626;31;20061;-48
2021/08/16 10:13:16;;;;;;;6.22;4.47;;;;;;;31.96;30.17;99921.50;2613936;36;20057;-48
2021/08/16 10:15:45;;;;;;;4.90;4.07;;;;;;;32.08;29.01;99912.63;2613966;36;20031;-46
2021/08/16 10:18:19;;;;;;;6.65;3.88;;;;;;;33.41;28.72;99936.56;2614162;36;20564;-46
2021/08/16 10:20:47;;;;;;;7.03;4.47;;;;;;;31.51;30.98;99912.50;2614306;31;20034;-46
2021/08/16 10:23:23;;;;;;;5.95;4.13;;;;;;;30.94;31.21;99895.47;2613610;36;20030;-47
2021/08/16 10:25:52;;;;;;;8.48;4.30;;;;;;;28.98;36.22;99910.41;2577920;31;2004464;-47
2021/08/16 10:28:30;;;;;;;5.75;4.10;;;;;;;29.31;36.35;99908.25;2613803;36;20061;-48
2021/08/16 10:31:02;;;;;;;8.10;4.13;;;;;;;29.89;34.49;99906.22;2578562;31;2004537;-46
2021/08/16 10:33:41;;;;;;;8.20;4.63;;;;;;;29.95;35.34;99908.44;2614306;31;20030;-49
2021/08/16 10:36:18;;;;;;;5.65;4.15;;;;;;;30.02;35.89;99906.25;2614289;36;20436;-49
2021/08/16 10:38:54;;;;;;;5.22;3.85;;;;;;;28.21;37.60;99899.28;2613926;31;20039;-48
2021/08/16 10:41:29;;;;;;;4.80;4.10;;;;;;;29.12;36.30;99894.53;2578279;31;2004706;-47
2021/08/16 10:43:57;;;;;;;5.07;4.57;;;;;;;28.03;37.92;99876.69;2614532;31;20061;-47
2021/08/16 10:46:24;;;;;;;9.65;4.78;;;;;;;29.47;35.85;99901.97;2613424;36;20038;-46
2021/08/16 10:48:59;;;;;;;6.40;4.00;;;;;;;32.42;30.69;99891.50;2613958;36;20443;-48
2021/08/16 10:51:38;;;;;;;5.82;4.15;;;;;;;33.61;28.40;99900.47;2615037;31;20057;-53
2021/08/16 10:54:05;;;;;;;7.13;4.60;;;;;;;32.38;31.47;99898.00;2614485;31;20026;-46
2021/08/16 10:56:33;;;;;;;5.20;4.10;;;;;;;32.74;30.83;99888.94;2613640;36;20030;-47
2021/08/16 10:59:01;;;;;;;9.90;5.00;;;;;;;33.14;29.16;99894.56;2613962;31;20038;-51
2021/08/16 11:01:33;;;;;;;4.88;4.15;;;;;;;34.53;28.33;99895.34;2613737;31;20034;-48
2021/08/16 11:04:50;;;;;;;5.40;4.88;;;;;;;33.63;28.54;99885.22;2578316;31;2004457;-48
2021/08/16 11:07:23;;;;;;;5.13;4.60;;;;;;;31.02;32.58;99871.94;2615439;31;20459;-52
2021/08/16 11:09:58;;;;;;;6.65;5.15;;;;;;;29.20;33.50;99870.31;2577505;36;2004457;-52
2021/08/16 11:12:42;;;;;;;9.57;5.35;;;;;;;29.51;35.33;99867.38;2613582;36;20061;-46
2021/08/16 11:15:13;;;;;;;7.57;5.10;;;;;;;28.87;35.87;99858.34;2613647;36;20030;-51
2021/08/16 11:17:40;;;;;;;5.85;4.18;;;;;;;30.35;33.01;99861.69;2613733;31;20058;-46
2021/08/16 11:20:15;;;;;;;7.55;5.05;;;;;;;30.57;33.89;99876.91;2613914;31;20558;-47
2021/08/16 11:22:53;;;;;;;6.20;4.75;;;;;;;29.94;34.74;99864.50;2613656;36;20118;-49
2021/08/16 11:25:21;;;;;;;6.20;4.63;;;;;;;29.65;34.79;99862.06;2577337;36;2004436;-46
2021/08/16 11:27:48;;;;;;;8.27;4.72;;;;;;;28.79;36.74;99860.59;2614439;31;20038;-51
2021/08/16 11:30:16;;;;;;;5.70;4.68;;;;;;;28.26;37.50;99846.31;2613981;31;20034;-51
2021/08/16 11:32:44;;;;;;;5.03;4.30;;;;;;;27.70;37.29;99851.38;2613409;36;20077;-46
2021/08/16 11:35:12;;;;;;;6.40;4.68;;;;;;;27.10;38.13;99848.72;2613992;31;20038;-49
2021/08/16 11:37:41;;;;;;;5.93;4.80;;;;;;;27.04;38.69;99859.53;2614485;36;20451;-52
2021/08/16 11:40:09;;;;;;;6.38;4.43;;;;;;;26.49;39.81;99852.91;2614260;31;20061;-46